createdAt,value
2022-10-22T00:02:07.570Z,24.25
2022-10-22T00:04:35.702Z,18.08
2022-10-22T00:07:02.497Z,20.15
2022-10-22T00:09:29.103Z,18.35
2022-10-22T00:11:55.663Z,17.63
2022-10-22T00:14:22.295Z,15.88
2022-10-22T00:16:48.865Z,15.27
2022-10-22T00:19:15.535Z,21.33
2022-10-22T00:21:42.106Z,22.13
2022-10-22T00:24:08.695Z,17.73
2022-10-22T00:26:35.351Z,22.55
2022-10-22T00:29:01.885Z,14.95
2022-10-22T00:31:28.490Z,16.50
2022-10-22T00:33:55.045Z,18.42
2022-10-22T00:36:22.589Z,19.60
2022-10-22T00:38:49.184Z,16.13
2022-10-22T00:41:15.823Z,12.10
2022-10-22T00:44:01.712Z,14.70
2022-10-22T00:46:29.006Z,12.43
2022-10-22T00:48:58.738Z,14.55
2022-10-22T00:51:30.184Z,11.63
2022-10-22T00:54:03.109Z,16.85
2022-10-22T00:56:29.845Z,15.02
2022-10-22T00:59:00.635Z,18.45
2022-10-22T01:01:31.846Z,14.73
2022-10-22T01:03:59.119Z,18.42
2022-10-22T01:06:32.056Z,16.23
2022-10-22T01:09:16.374Z,19.20
2022-10-22T01:12:17.067Z,19.67
2022-10-22T01:15:14.346Z,21.38
2022-10-22T01:18:14.184Z,18.90
2022-10-22T01:20:52.737Z,18.23
2022-10-22T01:23:31.226Z,17.80
2022-10-22T01:26:21.411Z,20.27
2022-10-22T01:29:02.990Z,14.40
2022-10-22T01:31:36.331Z,14.05
2022-10-22T01:34:04.420Z,14.40
2022-10-22T01:36:33.109Z,13.25
2022-10-22T01:39:01.873Z,15.02
2022-10-22T01:41:29.706Z,13.25
2022-10-22T01:43:56.502Z,15.75
2022-10-22T01:46:25.771Z,11.20
2022-10-22T01:48:59.753Z,16.55
2022-10-22T01:51:52.093Z,9.88
2022-10-22T01:54:25.438Z,12.77
2022-10-22T01:57:07.686Z,12.35
2022-10-22T01:59:58.048Z,11.93
2022-10-22T02:02:28.984Z,12.15
2022-10-22T02:05:04.700Z,13.10
2022-10-22T02:07:36.110Z,14.65
2022-10-22T02:10:04.163Z,10.43
2022-10-22T02:12:32.436Z,13.27
2022-10-22T02:15:01.413Z,13.75
2022-10-22T02:17:30.566Z,13.82
2022-10-22T02:20:01.599Z,11.20
2022-10-22T02:22:28.755Z,15.40
2022-10-22T02:24:56.593Z,13.02
2022-10-22T02:27:45.303Z,14.45
2022-10-22T02:32:55.239Z,13.43
2022-10-22T02:35:24.666Z,12.60
2022-10-22T02:37:53.999Z,16.77
2022-10-22T02:40:21.153Z,14.45
2022-10-22T02:42:49.667Z,12.35
2022-10-22T02:45:17.518Z,16.52
2022-10-22T02:47:44.533Z,15.55
2022-10-22T02:50:11.161Z,15.23
2022-10-22T02:52:38.234Z,18.58
2022-10-22T02:55:06.317Z,18.45
2022-10-22T02:57:33.251Z,13.00
2022-10-22T02:59:59.920Z,14.35
2022-10-22T03:02:26.471Z,14.80
2022-10-22T03:04:52.990Z,14.32
2022-10-22T03:07:19.661Z,15.35
2022-10-22T03:09:46.593Z,15.05
2022-10-22T03:12:13.154Z,14.20
2022-10-22T03:14:39.686Z,12.95
2022-10-22T03:17:06.239Z,15.88
2022-10-22T03:19:32.803Z,16.48
2022-10-22T03:22:03.470Z,17.38
2022-10-22T03:24:39.999Z,16.40
2022-10-22T03:27:06.721Z,16.35
2022-10-22T03:29:37.506Z,14.80
2022-10-22T03:32:04.344Z,16.83
2022-10-22T03:34:30.935Z,12.82
2022-10-22T03:36:59.801Z,15.15
2022-10-22T03:39:29.498Z,13.18
2022-10-22T03:41:56.435Z,16.90
2022-10-22T03:44:24.051Z,15.02
2022-10-22T03:46:50.854Z,13.32
2022-10-22T03:49:17.422Z,14.82
2022-10-22T03:51:44.249Z,20.20
2022-10-22T03:54:10.994Z,14.52
2022-10-22T03:56:37.614Z,19.63
2022-10-22T03:59:04.742Z,24.00
2022-10-22T04:01:31.734Z,18.60
2022-10-22T04:03:58.793Z,15.77
2022-10-22T04:06:25.972Z,18.10
2022-10-22T04:08:52.749Z,21.92
2022-10-22T04:11:19.338Z,25.02
2022-10-22T04:13:45.889Z,22.70
2022-10-22T04:16:18.414Z,29.23
2022-10-22T04:18:46.151Z,23.55
2022-10-22T04:21:14.729Z,27.02
2022-10-22T04:23:51.459Z,26.95
2022-10-22T04:26:19.562Z,29.55
2022-10-22T04:28:47.506Z,29.92
2022-10-22T04:31:17.903Z,21.10
2022-10-22T04:33:44.750Z,23.55
2022-10-22T04:36:14.319Z,18.08
2022-10-22T04:38:41.947Z,20.95
2022-10-22T04:41:17.231Z,26.30
2022-10-22T04:43:44.400Z,22.20
2022-10-22T04:46:12.083Z,31.60
2022-10-22T04:48:40.385Z,34.88
2022-10-22T04:51:09.126Z,23.90
2022-10-22T04:53:36.320Z,38.58
2022-10-22T04:56:20.768Z,31.02
2022-10-22T04:58:58.335Z,27.23
2022-10-22T05:01:31.011Z,32.10
2022-10-22T05:04:00.035Z,34.78
2022-10-22T05:06:28.615Z,37.78
2022-10-22T05:08:57.973Z,34.35
2022-10-22T05:11:30.736Z,35.88
2022-10-22T05:13:58.526Z,29.75
2022-10-22T05:16:25.323Z,32.65
2022-10-22T05:18:51.894Z,25.20
2022-10-22T05:21:20.521Z,26.67
2022-10-22T05:23:49.345Z,32.22
2022-10-22T05:26:18.841Z,30.05
2022-10-22T05:28:46.563Z,32.60
2022-10-22T05:31:13.974Z,28.73
2022-10-22T05:33:41.604Z,38.63
2022-10-22T05:36:10.687Z,39.45
2022-10-22T05:38:37.295Z,41.63
2022-10-22T05:41:12.454Z,33.95
2022-10-22T05:43:39.545Z,42.72
2022-10-22T05:46:08.459Z,34.88
2022-10-22T05:48:35.775Z,38.22
2022-10-22T05:51:13.187Z,32.25
2022-10-22T05:53:42.269Z,28.88
2022-10-22T05:56:13.021Z,17.92
2022-10-22T05:58:40.022Z,78.03
2022-10-22T06:01:28.493Z,139.52
2022-10-22T06:03:59.517Z,123.50
2022-10-22T06:06:34.321Z,117.88
2022-10-22T06:09:15.045Z,31.02
2022-10-22T06:11:41.700Z,18.60
2022-10-22T06:14:09.702Z,16.30
2022-10-22T06:16:36.245Z,15.00
2022-10-22T06:19:03.220Z,14.60
2022-10-22T06:21:31.166Z,16.77
2022-10-22T06:23:59.464Z,28.70
2022-10-22T06:26:26.413Z,30.45
2022-10-22T06:28:53.116Z,26.38
2022-10-22T06:31:19.827Z,20.13
2022-10-22T06:33:46.412Z,19.25
2022-10-22T06:36:15.447Z,17.00
2022-10-22T06:38:42.930Z,16.42
2022-10-22T06:41:12.437Z,21.77
2022-10-22T06:43:40.002Z,23.52
2022-10-22T06:46:10.013Z,18.23
2022-10-22T06:48:38.018Z,20.48
2022-10-22T06:51:07.395Z,21.38
2022-10-22T06:53:34.260Z,18.65
2022-10-22T06:56:13.531Z,21.30
2022-10-22T06:58:40.143Z,15.48
2022-10-22T07:01:12.912Z,14.32
2022-10-22T07:03:40.985Z,16.55
2022-10-22T07:06:10.630Z,23.73
2022-10-22T07:08:38.261Z,17.75
2022-10-22T07:11:10.523Z,17.67
2022-10-22T07:13:37.523Z,19.60
2022-10-22T07:16:05.268Z,20.85
2022-10-22T07:18:34.077Z,14.80
2022-10-22T07:21:01.002Z,18.20
2022-10-22T07:23:28.148Z,16.85
2022-10-22T07:28:27.984Z,22.38
2022-10-22T07:30:54.641Z,25.50
2022-10-22T07:33:21.341Z,19.17
2022-10-22T07:35:47.916Z,17.08
2022-10-22T07:38:14.473Z,19.90
2022-10-22T07:40:41.081Z,16.55
2022-10-22T07:43:07.750Z,16.65
2022-10-22T07:45:34.442Z,14.55
2022-10-22T07:48:01.883Z,17.83
2022-10-22T07:50:28.731Z,16.05
2022-10-22T07:52:57.457Z,16.13
2022-10-22T07:55:25.188Z,22.42
2022-10-22T07:57:51.878Z,15.77
2022-10-22T08:00:21.704Z,14.88
2022-10-22T08:02:51.234Z,14.67
2022-10-22T08:05:18.110Z,14.52
2022-10-22T08:07:44.638Z,12.13
2022-10-22T08:10:12.389Z,12.75
2022-10-22T08:12:41.664Z,16.35
2022-10-22T08:15:09.198Z,13.15
2022-10-22T08:17:35.960Z,11.68
2022-10-22T08:20:02.683Z,13.20
2022-10-22T08:22:29.231Z,11.98
2022-10-22T08:24:55.820Z,12.70
2022-10-22T08:27:22.564Z,11.32
2022-10-22T08:29:49.281Z,10.02
2022-10-22T08:32:15.927Z,9.32
2022-10-22T08:34:42.481Z,10.73
2022-10-22T08:37:10.534Z,11.20
2022-10-22T08:39:37.105Z,19.10
2022-10-22T08:42:25.395Z,9.77
2022-10-22T08:45:01.374Z,9.07
2022-10-22T08:47:54.560Z,9.13
2022-10-22T08:50:33.971Z,9.97
2022-10-22T08:53:05.222Z,12.65
2022-10-22T08:55:36.614Z,14.82
2022-10-22T08:58:04.103Z,13.10
2022-10-22T09:00:46.128Z,9.70
2022-10-22T09:03:48.759Z,10.43
2022-10-22T09:06:26.623Z,13.50
2022-10-22T09:08:55.898Z,13.18
2022-10-22T09:11:35.180Z,11.85
2022-10-22T09:14:03.002Z,10.25
2022-10-22T09:16:48.115Z,10.68
2022-10-22T09:19:35.188Z,8.35
2022-10-22T09:22:28.831Z,10.07
2022-10-22T09:25:17.244Z,16.55
2022-10-22T09:27:44.130Z,12.02
2022-10-22T09:30:33.974Z,10.68
2022-10-22T09:33:02.176Z,14.68
2022-10-22T09:35:33.159Z,9.02
2022-10-22T09:38:07.469Z,11.77
2022-10-22T09:40:46.702Z,17.30
2022-10-22T09:43:14.975Z,16.38
2022-10-22T09:45:42.635Z,9.27
2022-10-22T09:48:26.443Z,14.52
2022-10-22T09:53:30.151Z,14.05
2022-10-22T09:56:01.268Z,19.35
2022-10-22T09:58:28.646Z,16.80
2022-10-22T10:00:58.373Z,20.17
2022-10-22T10:03:28.949Z,18.52
2022-10-22T10:06:01.578Z,21.60
2022-10-22T10:08:31.772Z,54.88
2022-10-22T10:11:57.256Z,54.28
2022-10-22T10:14:31.562Z,72.50
2022-10-22T10:17:03.172Z,47.88
2022-10-22T10:20:01.389Z,49.65
2022-10-22T10:22:33.443Z,49.15
2022-10-22T10:25:23.938Z,42.15
2022-10-22T10:28:15.171Z,29.65
2022-10-22T10:31:31.331Z,38.15
2022-10-22T10:34:12.977Z,29.55
2022-10-22T10:37:05.954Z,30.85
2022-10-22T10:39:32.464Z,26.88
2022-10-22T10:42:17.662Z,22.05
2022-10-22T10:45:03.164Z,30.75
2022-10-22T10:47:41.998Z,28.73
2022-10-22T10:50:17.904Z,31.50
2022-10-22T10:52:52.526Z,37.72
2022-10-22T10:55:28.686Z,33.40
2022-10-22T10:58:13.445Z,30.42
2022-10-22T11:00:53.794Z,36.10
2022-10-22T11:03:47.040Z,34.88
2022-10-22T11:06:19.406Z,29.03
2022-10-22T11:09:27.347Z,36.88
2022-10-22T11:12:02.837Z,30.98
2022-10-22T11:14:40.017Z,30.08
2022-10-22T11:17:18.498Z,34.13
2022-10-22T11:20:01.036Z,35.78
2022-10-22T11:22:44.504Z,22.70
2022-10-22T11:25:25.040Z,27.08
2022-10-22T11:28:07.859Z,37.08
2022-10-22T11:30:40.907Z,27.73
2022-10-22T11:33:12.634Z,27.48
2022-10-22T11:35:42.697Z,23.27
2022-10-22T11:38:14.840Z,25.20
2022-10-22T11:41:09.619Z,21.90
2022-10-22T11:43:52.545Z,21.15
2022-10-22T11:46:19.028Z,21.97
2022-10-22T11:49:03.241Z,22.58
2022-10-22T11:51:38.916Z,24.10
2022-10-22T11:54:44.056Z,20.55
2022-10-22T11:57:16.619Z,23.05
2022-10-22T11:59:48.056Z,24.35
2022-10-22T12:02:41.307Z,20.65
2022-10-22T12:05:24.448Z,26.35
2022-10-22T12:07:57.187Z,18.95
2022-10-22T12:10:34.057Z,18.80
2022-10-22T12:13:11.665Z,19.83
2022-10-22T12:15:48.640Z,28.85
2022-10-22T12:18:16.446Z,17.98
2022-10-22T12:20:43.246Z,20.80
2022-10-22T12:23:12.514Z,15.48
2022-10-22T12:25:39.371Z,17.15
2022-10-22T12:28:12.846Z,21.85
2022-10-22T12:33:07.814Z,16.10
2022-10-22T12:35:43.027Z,17.00
2022-10-22T12:38:18.305Z,18.48
2022-10-22T12:40:48.626Z,14.02
2022-10-22T12:43:33.848Z,29.98
2022-10-22T12:46:00.856Z,22.35
2022-10-22T12:48:30.981Z,18.83
2022-10-22T12:51:03.967Z,15.88
2022-10-22T12:53:39.534Z,18.38
2022-10-22T12:56:10.868Z,12.73
2022-10-22T12:58:39.302Z,18.40
2022-10-22T13:01:06.600Z,16.52
2022-10-22T13:03:38.768Z,23.92
2022-10-22T13:06:18.402Z,17.08
2022-10-22T13:08:55.189Z,12.30
2022-10-22T13:11:21.861Z,23.58
2022-10-22T13:13:48.486Z,18.52
2022-10-22T13:16:19.585Z,18.05
2022-10-22T13:18:47.318Z,20.17
2022-10-22T13:21:22.991Z,18.45
2022-10-22T13:24:01.211Z,17.58
2022-10-22T13:26:37.045Z,23.67
2022-10-22T13:29:11.929Z,18.50
2022-10-22T13:31:46.328Z,23.15
2022-10-22T13:34:18.137Z,25.42
2022-10-22T13:36:44.929Z,24.02
2022-10-22T13:39:23.123Z,23.88
2022-10-22T13:41:50.621Z,27.95
2022-10-22T13:44:20.051Z,23.40
2022-10-22T13:46:48.484Z,20.67
2022-10-22T13:49:18.206Z,21.27
2022-10-22T13:51:45.457Z,21.75
2022-10-22T13:54:18.494Z,16.05
2022-10-22T13:56:45.198Z,28.52
2022-10-22T13:59:11.779Z,20.02
2022-10-22T14:01:39.178Z,19.15
2022-10-22T14:04:08.397Z,25.90
2022-10-22T14:09:11.397Z,17.45
2022-10-22T14:11:38.034Z,17.70
2022-10-22T14:14:08.668Z,16.08
2022-10-22T14:16:37.085Z,20.40
2022-10-22T14:19:04.901Z,20.73
2022-10-22T14:21:36.308Z,17.65
2022-10-22T14:24:03.112Z,35.75
2022-10-22T14:26:33.156Z,25.60
2022-10-22T14:29:16.203Z,40.35
2022-10-22T14:31:44.646Z,26.65
2022-10-22T14:34:13.656Z,25.75
2022-10-22T14:36:40.367Z,30.63
2022-10-22T14:39:07.004Z,33.97
2022-10-22T14:41:33.794Z,27.60
2022-10-22T14:44:00.699Z,32.30
2022-10-22T14:46:27.428Z,29.58
2022-10-22T14:48:53.983Z,22.75
2022-10-22T14:51:21.683Z,33.80
2022-10-22T14:53:48.666Z,24.30
2022-10-22T14:56:18.560Z,28.33
2022-10-22T14:58:45.818Z,23.35
2022-10-22T15:01:12.736Z,33.42
2022-10-22T15:03:39.407Z,29.45
2022-10-22T15:06:06.691Z,36.08
2022-10-22T15:08:33.426Z,31.25
2022-10-22T15:11:08.907Z,30.27
2022-10-22T15:13:35.706Z,39.42
2022-10-22T15:16:10.579Z,39.88
2022-10-22T15:18:37.596Z,47.95
2022-10-22T15:21:07.727Z,35.53
2022-10-22T15:23:35.829Z,74.70
2022-10-22T15:26:02.378Z,59.22
2022-10-22T15:28:28.922Z,54.40
2022-10-22T15:30:57.649Z,48.03
2022-10-22T15:33:25.054Z,53.92
2022-10-22T15:35:51.716Z,60.50
2022-10-22T15:38:18.515Z,61.70
2022-10-22T15:40:45.587Z,65.43
2022-10-22T15:43:12.399Z,64.35
2022-10-22T15:45:39.787Z,65.43
2022-10-22T15:48:06.510Z,76.05
2022-10-22T15:50:37.786Z,95.43
2022-10-22T15:53:04.351Z,83.55
2022-10-22T15:55:30.890Z,66.25
2022-10-22T15:57:59.365Z,77.10
2022-10-22T16:00:28.551Z,68.60
2022-10-22T16:02:55.212Z,49.72
2022-10-22T16:05:21.861Z,47.90
2022-10-22T16:07:48.494Z,53.83
2022-10-22T16:10:15.118Z,52.40
2022-10-22T16:12:42.685Z,69.53
2022-10-22T16:15:09.981Z,67.65
2022-10-22T16:17:36.587Z,88.82
2022-10-22T16:20:03.616Z,83.90
2022-10-22T16:22:30.218Z,75.03
2022-10-22T16:24:56.771Z,67.80
2022-10-22T16:27:23.319Z,76.80
2022-10-22T16:29:50.038Z,72.80
2022-10-22T16:32:17.483Z,61.08
2022-10-22T16:34:44.083Z,58.97
2022-10-22T16:37:10.670Z,56.17
2022-10-22T16:39:37.664Z,61.33
2022-10-22T16:42:04.938Z,52.65
2022-10-22T16:44:31.506Z,30.42
2022-10-22T16:46:58.052Z,32.97
2022-10-22T16:49:24.739Z,21.52
2022-10-22T16:51:51.336Z,23.10
2022-10-22T16:54:17.948Z,24.40
2022-10-22T16:56:44.531Z,22.48
2022-10-22T16:59:11.107Z,23.52
2022-10-22T17:01:40.920Z,20.08
2022-10-22T17:04:08.674Z,25.00
2022-10-22T17:06:35.476Z,32.47
2022-10-22T17:09:02.125Z,27.50
2022-10-22T17:11:34.623Z,25.88
2022-10-22T17:14:02.101Z,32.50
2022-10-22T17:16:28.685Z,39.40
2022-10-22T17:18:55.923Z,38.78
2022-10-22T17:21:23.497Z,30.65
2022-10-22T17:23:55.341Z,32.20
2022-10-22T17:26:23.056Z,29.05
2022-10-22T17:28:49.730Z,26.83
2022-10-22T17:31:18.154Z,31.27
2022-10-22T17:33:45.773Z,34.03
2022-10-22T17:36:13.712Z,32.88
2022-10-22T17:38:41.940Z,31.85
2022-10-22T17:41:12.556Z,35.28
2022-10-22T17:43:41.367Z,29.77
2022-10-22T17:46:13.437Z,30.70
2022-10-22T17:48:40.141Z,34.97
2022-10-22T17:51:12.321Z,42.55
2022-10-22T17:53:48.356Z,44.40
2022-10-22T17:56:17.475Z,51.08
2022-10-22T17:58:44.317Z,46.17
2022-10-22T18:01:20.586Z,48.55
2022-10-22T18:03:47.505Z,35.20
2022-10-22T18:06:14.496Z,42.25
2022-10-22T18:08:41.239Z,37.15
2022-10-22T18:11:08.956Z,35.00
2022-10-22T18:13:36.358Z,35.55
2022-10-22T18:16:03.075Z,28.80
2022-10-22T18:18:29.654Z,27.25
2022-10-22T18:20:56.473Z,25.92
2022-10-22T18:23:23.076Z,30.92
2022-10-22T18:25:49.793Z,20.42
2022-10-22T18:28:17.926Z,22.00
2022-10-22T18:30:45.754Z,26.05
2022-10-22T18:33:14.839Z,25.02
2022-10-22T18:35:41.708Z,25.65
2022-10-22T18:38:09.521Z,24.25
2022-10-22T18:40:38.732Z,23.13
2022-10-22T18:43:05.336Z,25.95
2022-10-22T18:45:32.838Z,18.65
2022-10-22T18:48:00.767Z,26.92
2022-10-22T18:50:27.371Z,27.17
2022-10-22T18:52:54.662Z,26.52
2022-10-22T18:55:21.212Z,28.27
2022-10-22T18:57:47.797Z,28.52
2022-10-22T19:00:14.820Z,33.92
2022-10-22T19:02:42.815Z,35.78
2022-10-22T19:05:09.630Z,35.28
2022-10-22T19:07:39.206Z,27.08
2022-10-22T19:10:06.446Z,28.33
2022-10-22T19:12:33.064Z,28.63
2022-10-22T19:14:59.656Z,34.83
2022-10-22T19:17:26.216Z,24.92
2022-10-22T19:19:52.781Z,18.35
2022-10-22T19:22:20.867Z,20.00
2022-10-22T19:24:50.526Z,21.08
2022-10-22T19:27:18.413Z,23.50
2022-10-22T19:29:46.206Z,29.48
2022-10-22T19:32:13.443Z,23.52
2022-10-22T19:34:41.200Z,24.30
2022-10-22T19:37:08.117Z,29.80
2022-10-22T19:39:34.830Z,30.38
2022-10-22T19:42:01.711Z,31.15
2022-10-22T19:44:28.239Z,23.80
2022-10-22T19:46:54.799Z,33.22
2022-10-22T19:49:22.976Z,28.58
2022-10-22T19:51:49.751Z,24.23
2022-10-22T19:54:18.614Z,26.95
2022-10-22T19:56:46.469Z,32.05
2022-10-22T19:59:14.774Z,26.15
2022-10-22T20:01:41.695Z,28.58
2022-10-22T20:04:09.776Z,28.60
2022-10-22T20:06:36.359Z,24.00
2022-10-22T20:09:02.989Z,32.10
2022-10-22T20:11:30.060Z,30.50
2022-10-22T20:13:57.295Z,31.38
2022-10-22T20:16:28.446Z,28.95
2022-10-22T20:18:55.831Z,22.83
2022-10-22T20:21:22.480Z,27.08
2022-10-22T20:23:52.904Z,28.27
2022-10-22T20:26:20.195Z,32.05
2022-10-22T20:28:46.867Z,25.60
2022-10-22T20:31:16.967Z,26.50
2022-10-22T20:33:43.592Z,20.15
2022-10-22T20:36:15.828Z,17.75
2022-10-22T20:38:43.280Z,18.52
2022-10-22T20:41:16.036Z,20.33
2022-10-22T20:43:49.559Z,31.77
2022-10-22T20:46:23.110Z,26.20
2022-10-22T20:48:54.767Z,25.63
2022-10-22T20:51:21.317Z,20.83
2022-10-22T20:53:48.306Z,20.15
2022-10-22T20:56:16.469Z,22.17
2022-10-22T20:58:48.040Z,21.88
2022-10-22T21:01:21.749Z,25.52
2022-10-22T21:03:50.442Z,17.00
2022-10-22T21:06:17.493Z,23.67
2022-10-22T21:08:44.089Z,18.35
2022-10-22T21:11:10.651Z,18.45
2022-10-22T21:13:37.322Z,24.45
2022-10-22T21:16:12.113Z,23.95
2022-10-22T21:18:39.407Z,23.15
2022-10-22T21:21:07.460Z,17.60
2022-10-22T21:23:35.954Z,20.95
2022-10-22T21:26:02.578Z,23.63
2022-10-22T21:30:56.691Z,24.98
2022-10-22T21:33:23.281Z,23.00
2022-10-22T21:35:54.758Z,22.38
2022-10-22T21:38:22.841Z,23.25
2022-10-22T21:40:49.863Z,21.23
2022-10-22T21:43:17.029Z,18.90
2022-10-22T21:45:44.205Z,18.20
2022-10-22T21:48:13.167Z,20.20
2022-10-22T21:50:43.714Z,29.05
2022-10-22T21:53:12.066Z,36.00
2022-10-22T21:55:39.835Z,70.70
2022-10-22T21:58:07.320Z,114.68
2022-10-22T22:00:34.616Z,61.78
2022-10-22T22:03:01.353Z,43.72
2022-10-22T22:05:28.410Z,47.28
2022-10-22T22:07:54.966Z,34.13
2022-10-22T22:10:21.595Z,26.05
2022-10-22T22:12:48.151Z,22.20
2022-10-22T22:15:14.839Z,21.40
2022-10-22T22:17:41.379Z,19.73
2022-10-22T22:20:10.097Z,18.42
2022-10-22T22:22:36.905Z,14.65
2022-10-22T22:25:03.626Z,14.75
2022-10-22T22:27:30.233Z,16.98
2022-10-22T22:29:56.792Z,18.13
2022-10-22T22:32:23.417Z,17.98
2022-10-22T22:34:49.979Z,16.42
2022-10-22T22:37:16.544Z,17.10
2022-10-22T22:39:43.102Z,16.98
2022-10-22T22:42:09.643Z,18.02
2022-10-22T22:44:36.195Z,18.77
2022-10-22T22:47:02.750Z,25.70
2022-10-22T22:49:29.289Z,22.00
2022-10-22T22:51:55.931Z,19.15
2022-10-22T22:54:22.489Z,19.33
2022-10-22T22:56:50.143Z,28.10
2022-10-22T22:59:16.684Z,21.00
2022-10-22T23:01:43.336Z,25.02
2022-10-22T23:04:18.963Z,23.85
2022-10-22T23:06:46.222Z,24.90
2022-10-22T23:09:14.086Z,23.00
2022-10-22T23:11:41.974Z,29.13
2022-10-22T23:14:11.450Z,30.85
2022-10-22T23:16:41.548Z,41.00
2022-10-22T23:19:08.336Z,48.05
2022-10-22T23:21:37.753Z,34.15
2022-10-22T23:24:07.811Z,28.98
2022-10-22T23:26:37.293Z,27.15
2022-10-22T23:29:06.787Z,26.23
2022-10-22T23:31:33.847Z,20.08
2022-10-22T23:34:00.618Z,18.90
2022-10-22T23:36:27.259Z,18.58
2022-10-22T23:38:54.442Z,20.75
2022-10-22T23:41:21.053Z,18.13
2022-10-22T23:43:47.565Z,20.25
2022-10-22T23:46:14.299Z,17.67
2022-10-22T23:48:41.187Z,16.63
2022-10-22T23:51:11.186Z,18.95
2022-10-22T23:53:38.163Z,20.50
2022-10-22T23:56:07.205Z,24.38
2022-10-22T23:58:35.170Z,17.50
